sensor_id;sensor_type;location;lat;lon;timestamp;temperature;humidity
76470;DHT22;65305;52.870;13.660;2023-04-06T00:01:53;10.20;61.70
76470;DHT22;65305;52.870;13.660;2023-04-06T00:04:19;10.30;61.70
76470;DHT22;65305;52.870;13.660;2023-04-06T00:06:46;10.30;61.60
76470;DHT22;65305;52.870;13.660;2023-04-06T00:09:13;10.40;61.60
76470;DHT22;65305;52.870;13.660;2023-04-06T00:11:39;10.50;61.50
76470;DHT22;65305;52.870;13.660;2023-04-06T00:14:06;10.50;61.40
76470;DHT22;65305;52.870;13.660;2023-04-06T00:16:32;10.60;61.30
76470;DHT22;65305;52.870;13.660;2023-04-06T00:18:59;10.70;61.30
76470;DHT22;65305;52.870;13.660;2023-04-06T00:21:25;10.80;61.20
76470;DHT22;65305;52.870;13.660;2023-04-06T00:23:52;10.80;61.10
76470;DHT22;65305;52.870;13.660;2023-04-06T00:26:19;10.90;61.00
76470;DHT22;65305;52.870;13.660;2023-04-06T00:28:46;11.00;60.90
76470;DHT22;65305;52.870;13.660;2023-04-06T00:31:12;11.00;60.90
76470;DHT22;65305;52.870;13.660;2023-04-06T00:33:39;11.10;60.80
76470;DHT22;65305;52.870;13.660;2023-04-06T00:36:05;11.10;60.70
76470;DHT22;65305;52.870;13.660;2023-04-06T00:38:32;11.20;60.60
76470;DHT22;65305;52.870;13.660;2023-04-06T00:40:58;11.30;60.60
76470;DHT22;65305;52.870;13.660;2023-04-06T00:43:25;11.40;60.50
76470;DHT22;65305;52.870;13.660;2023-04-06T00:45:52;11.40;60.40
76470;DHT22;65305;52.870;13.660;2023-04-06T00:48:18;11.50;60.30
76470;DHT22;65305;52.870;13.660;2023-04-06T00:50:45;11.50;60.20
76470;DHT22;65305;52.870;13.660;2023-04-06T00:53:11;11.60;60.10
76470;DHT22;65305;52.870;13.660;2023-04-06T00:55:38;11.70;60.10
76470;DHT22;65305;52.870;13.660;2023-04-06T00:58:05;11.50;57.50
76470;DHT22;65305;52.870;13.660;2023-04-06T01:00:31;11.10;57.70
76470;DHT22;65305;52.870;13.660;2023-04-06T01:02:58;10.70;56.90
76470;DHT22;65305;52.870;13.660;2023-04-06T01:05:24;10.50;56.60
76470;DHT22;65305;52.870;13.660;2023-04-06T01:07:51;10.20;56.30
76470;DHT22;65305;52.870;13.660;2023-04-06T01:10:27;10.10;56.10
76470;DHT22;65305;52.870;13.660;2023-04-06T01:12:54;10.00;56.20
76470;DHT22;65305;52.870;13.660;2023-04-06T01:15:21;9.80;56.30
76470;DHT22;65305;52.870;13.660;2023-04-06T01:17:47;9.70;56.30
76470;DHT22;65305;52.870;13.660;2023-04-06T01:20:14;9.60;56.30
76470;DHT22;65305;52.870;13.660;2023-04-06T01:22:40;9.60;56.40
76470;DHT22;65305;52.870;13.660;2023-04-06T01:25:07;9.50;56.40
76470;DHT22;65305;52.870;13.660;2023-04-06T01:27:34;9.50;56.50
76470;DHT22;65305;52.870;13.660;2023-04-06T01:30:00;9.40;56.50
76470;DHT22;65305;52.870;13.660;2023-04-06T01:32:27;9.40;56.50
76470;DHT22;65305;52.870;13.660;2023-04-06T01:34:53;9.40;56.50
76470;DHT22;65305;52.870;13.660;2023-04-06T01:37:20;9.40;56.70
76470;DHT22;65305;52.870;13.660;2023-04-06T01:39:47;9.30;56.70
76470;DHT22;65305;52.870;13.660;2023-04-06T01:42:13;9.20;56.70
76470;DHT22;65305;52.870;13.660;2023-04-06T01:44:40;9.20;56.70
76470;DHT22;65305;52.870;13.660;2023-04-06T01:47:06;9.20;56.80
76470;DHT22;65305;52.870;13.660;2023-04-06T01:49:33;9.10;56.90
76470;DHT22;65305;52.870;13.660;2023-04-06T01:51:59;9.10;57.00
76470;DHT22;65305;52.870;13.660;2023-04-06T01:54:26;9.00;57.00
76470;DHT22;65305;52.870;13.660;2023-04-06T01:56:52;9.00;57.00
76470;DHT22;65305;52.870;13.660;2023-04-06T01:59:19;9.00;57.00
76470;DHT22;65305;52.870;13.660;2023-04-06T02:01:46;9.00;57.00
76470;DHT22;65305;52.870;13.660;2023-04-06T02:04:12;9.00;57.10
76470;DHT22;65305;52.870;13.660;2023-04-06T02:06:40;9.00;57.10
76470;DHT22;65305;52.870;13.660;2023-04-06T02:09:06;8.90;57.20
76470;DHT22;65305;52.870;13.660;2023-04-06T02:11:33;8.90;57.30
76470;DHT22;65305;52.870;13.660;2023-04-06T02:13:59;8.90;57.20
76470;DHT22;65305;52.870;13.660;2023-04-06T02:16:26;8.90;57.30
76470;DHT22;65305;52.870;13.660;2023-04-06T02:18:53;8.80;57.40
76470;DHT22;65305;52.870;13.660;2023-04-06T02:21:20;8.80;57.40
76470;DHT22;65305;52.870;13.660;2023-04-06T02:23:47;8.80;57.50
76470;DHT22;65305;52.870;13.660;2023-04-06T02:26:15;8.80;57.50
76470;DHT22;65305;52.870;13.660;2023-04-06T02:28:41;8.70;57.50
76470;DHT22;65305;52.870;13.660;2023-04-06T02:31:08;8.70;57.50
76470;DHT22;65305;52.870;13.660;2023-04-06T02:33:34;8.60;57.60
76470;DHT22;65305;52.870;13.660;2023-04-06T02:36:01;8.60;57.60
76470;DHT22;65305;52.870;13.660;2023-04-06T02:38:27;8.60;57.70
76470;DHT22;65305;52.870;13.660;2023-04-06T02:40:54;8.60;57.70
76470;DHT22;65305;52.870;13.660;2023-04-06T02:43:20;8.60;57.70
76470;DHT22;65305;52.870;13.660;2023-04-06T02:45:47;8.60;57.80
76470;DHT22;65305;52.870;13.660;2023-04-06T02:48:13;8.60;57.80
76470;DHT22;65305;52.870;13.660;2023-04-06T02:50:40;8.50;57.90
76470;DHT22;65305;52.870;13.660;2023-04-06T02:53:07;8.50;57.90
76470;DHT22;65305;52.870;13.660;2023-04-06T02:55:34;8.50;58.00
76470;DHT22;65305;52.870;13.660;2023-04-06T02:58:00;8.50;58.00
76470;DHT22;65305;52.870;13.660;2023-04-06T03:00:27;8.50;58.10
76470;DHT22;65305;52.870;13.660;2023-04-06T03:02:53;8.50;58.00
76470;DHT22;65305;52.870;13.660;2023-04-06T03:05:20;8.40;58.10
76470;DHT22;65305;52.870;13.660;2023-04-06T03:07:46;8.40;58.20
76470;DHT22;65305;52.870;13.660;2023-04-06T03:10:13;8.40;58.20
76470;DHT22;65305;52.870;13.660;2023-04-06T03:12:39;8.40;58.20
76470;DHT22;65305;52.870;13.660;2023-04-06T03:15:07;8.40;58.20
76470;DHT22;65305;52.870;13.660;2023-04-06T03:17:34;8.30;58.30
76470;DHT22;65305;52.870;13.660;2023-04-06T03:20:01;8.30;58.30
76470;DHT22;65305;52.870;13.660;2023-04-06T03:22:28;8.30;58.30
76470;DHT22;65305;52.870;13.660;2023-04-06T03:24:55;8.30;58.30
76470;DHT22;65305;52.870;13.660;2023-04-06T03:27:22;8.30;58.40
76470;DHT22;65305;52.870;13.660;2023-04-06T03:29:49;8.30;58.40
76470;DHT22;65305;52.870;13.660;2023-04-06T03:32:15;8.30;58.50
76470;DHT22;65305;52.870;13.660;2023-04-06T03:34:42;8.20;58.50
76470;DHT22;65305;52.870;13.660;2023-04-06T03:37:08;8.20;58.50
76470;DHT22;65305;52.870;13.660;2023-04-06T03:39:35;8.20;58.50
76470;DHT22;65305;52.870;13.660;2023-04-06T03:42:02;8.20;58.60
76470;DHT22;65305;52.870;13.660;2023-04-06T03:44:28;8.20;58.60
76470;DHT22;65305;52.870;13.660;2023-04-06T03:46:55;8.20;58.60
76470;DHT22;65305;52.870;13.660;2023-04-06T03:49:21;8.20;58.60
76470;DHT22;65305;52.870;13.660;2023-04-06T03:51:48;8.10;58.70
76470;DHT22;65305;52.870;13.660;2023-04-06T03:54:14;8.10;58.70
76470;DHT22;65305;52.870;13.660;2023-04-06T03:56:41;8.10;58.70
76470;DHT22;65305;52.870;13.660;2023-04-06T03:59:07;8.10;58.70
76470;DHT22;65305;52.870;13.660;2023-04-06T04:01:34;8.10;58.80
76470;DHT22;65305;52.870;13.660;2023-04-06T04:04:01;8.10;58.70
76470;DHT22;65305;52.870;13.660;2023-04-06T04:06:28;8.10;58.80
76470;DHT22;65305;52.870;13.660;2023-04-06T04:08:55;8.00;58.80
76470;DHT22;65305;52.870;13.660;2023-04-06T04:11:22;8.00;58.90
76470;DHT22;65305;52.870;13.660;2023-04-06T04:13:49;8.00;58.90
76470;DHT22;65305;52.870;13.660;2023-04-06T04:16:17;8.00;59.00
76470;DHT22;65305;52.870;13.660;2023-04-06T04:18:43;8.00;59.00
76470;DHT22;65305;52.870;13.660;2023-04-06T04:21:11;8.00;59.00
76470;DHT22;65305;52.870;13.660;2023-04-06T04:23:37;8.00;59.00
76470;DHT22;65305;52.870;13.660;2023-04-06T04:26:04;8.00;59.00
76470;DHT22;65305;52.870;13.660;2023-04-06T04:28:30;8.00;59.00
76470;DHT22;65305;52.870;13.660;2023-04-06T04:30:57;8.00;59.00
76470;DHT22;65305;52.870;13.660;2023-04-06T04:33:23;8.00;59.00
76470;DHT22;65305;52.870;13.660;2023-04-06T04:35:50;7.90;59.00
76470;DHT22;65305;52.870;13.660;2023-04-06T04:38:16;7.90;59.00
76470;DHT22;65305;52.870;13.660;2023-04-06T04:40:43;7.90;59.10
76470;DHT22;65305;52.870;13.660;2023-04-06T04:43:10;7.90;59.10
76470;DHT22;65305;52.870;13.660;2023-04-06T04:45:36;7.90;59.20
76470;DHT22;65305;52.870;13.660;2023-04-06T04:48:03;7.80;59.10
76470;DHT22;65305;52.870;13.660;2023-04-06T04:50:31;7.80;59.20
76470;DHT22;65305;52.870;13.660;2023-04-06T04:52:57;7.80;59.30
76470;DHT22;65305;52.870;13.660;2023-04-06T04:55:24;7.80;59.20
76470;DHT22;65305;52.870;13.660;2023-04-06T04:57:51;7.80;59.20
76470;DHT22;65305;52.870;13.660;2023-04-06T05:00:18;7.80;59.30
76470;DHT22;65305;52.870;13.660;2023-04-06T05:02:45;7.80;59.30
76470;DHT22;65305;52.870;13.660;2023-04-06T05:05:12;7.80;59.30
76470;DHT22;65305;52.870;13.660;2023-04-06T05:07:38;7.80;59.30
76470;DHT22;65305;52.870;13.660;2023-04-06T05:10:05;7.80;59.40
76470;DHT22;65305;52.870;13.660;2023-04-06T05:12:32;7.80;59.40
76470;DHT22;65305;52.870;13.660;2023-04-06T05:14:58;7.80;59.40
76470;DHT22;65305;52.870;13.660;2023-04-06T05:17:25;7.70;59.50
76470;DHT22;65305;52.870;13.660;2023-04-06T05:19:51;7.70;59.40
76470;DHT22;65305;52.870;13.660;2023-04-06T05:22:18;7.70;59.40
76470;DHT22;65305;52.870;13.660;2023-04-06T05:24:44;7.70;59.50
76470;DHT22;65305;52.870;13.660;2023-04-06T05:27:11;7.70;59.50
76470;DHT22;65305;52.870;13.660;2023-04-06T05:29:37;7.70;59.50
76470;DHT22;65305;52.870;13.660;2023-04-06T05:32:04;7.70;59.50
76470;DHT22;65305;52.870;13.660;2023-04-06T05:34:32;7.70;59.60
76470;DHT22;65305;52.870;13.660;2023-04-06T05:36:58;7.60;59.60
76470;DHT22;65305;52.870;13.660;2023-04-06T05:39:25;7.60;59.60
76470;DHT22;65305;52.870;13.660;2023-04-06T05:41:52;7.60;59.60
76470;DHT22;65305;52.870;13.660;2023-04-06T05:44:18;7.60;59.70
76470;DHT22;65305;52.870;13.660;2023-04-06T05:46:45;7.60;59.70
76470;DHT22;65305;52.870;13.660;2023-04-06T05:49:11;7.60;59.70
76470;DHT22;65305;52.870;13.660;2023-04-06T05:51:38;7.60;59.70
76470;DHT22;65305;52.870;13.660;2023-04-06T05:54:05;7.60;59.80
76470;DHT22;65305;52.870;13.660;2023-04-06T05:56:31;7.60;59.80
76470;DHT22;65305;52.870;13.660;2023-04-06T05:58:58;7.50;59.80
76470;DHT22;65305;52.870;13.660;2023-04-06T06:01:24;7.50;59.90
76470;DHT22;65305;52.870;13.660;2023-04-06T06:03:51;7.50;59.90
76470;DHT22;65305;52.870;13.660;2023-04-06T06:06:17;7.50;59.90
76470;DHT22;65305;52.870;13.660;2023-04-06T06:08:44;7.50;59.80
76470;DHT22;65305;52.870;13.660;2023-04-06T06:11:11;7.50;59.90
76470;DHT22;65305;52.870;13.660;2023-04-06T06:13:37;7.50;59.90
76470;DHT22;65305;52.870;13.660;2023-04-06T06:16:04;7.50;60.00
76470;DHT22;65305;52.870;13.660;2023-04-06T06:18:31;7.50;60.00
76470;DHT22;65305;52.870;13.660;2023-04-06T06:20:58;7.50;60.00
76470;DHT22;65305;52.870;13.660;2023-04-06T06:23:24;7.50;60.00
76470;DHT22;65305;52.870;13.660;2023-04-06T06:25:51;7.50;60.10
76470;DHT22;65305;52.870;13.660;2023-04-06T06:28:17;7.50;60.10
76470;DHT22;65305;52.870;13.660;2023-04-06T06:30:44;7.40;60.10
76470;DHT22;65305;52.870;13.660;2023-04-06T06:33:10;7.50;60.10
76470;DHT22;65305;52.870;13.660;2023-04-06T06:35:37;7.40;60.10
76470;DHT22;65305;52.870;13.660;2023-04-06T06:38:04;7.40;60.10
76470;DHT22;65305;52.870;13.660;2023-04-06T06:40:31;7.40;60.10
76470;DHT22;65305;52.870;13.660;2023-04-06T06:42:57;7.40;60.30
76470;DHT22;65305;52.870;13.660;2023-04-06T06:45:24;7.40;60.30
76470;DHT22;65305;52.870;13.660;2023-04-06T06:47:51;7.40;60.20
76470;DHT22;65305;52.870;13.660;2023-04-06T06:50:17;7.40;60.40
76470;DHT22;65305;52.870;13.660;2023-04-06T06:52:44;7.40;60.40
76470;DHT22;65305;52.870;13.660;2023-04-06T06:55:10;7.40;60.30
76470;DHT22;65305;52.870;13.660;2023-04-06T06:57:37;7.30;60.40
76470;DHT22;65305;52.870;13.660;2023-04-06T07:00:05;7.40;60.40
76470;DHT22;65305;52.870;13.660;2023-04-06T07:02:33;7.30;60.40
76470;DHT22;65305;52.870;13.660;2023-04-06T07:05:01;7.30;60.30
76470;DHT22;65305;52.870;13.660;2023-04-06T07:07:28;7.30;60.30
76470;DHT22;65305;52.870;13.660;2023-04-06T07:09:54;7.30;60.50
76470;DHT22;65305;52.870;13.660;2023-04-06T07:12:21;7.30;60.50
76470;DHT22;65305;52.870;13.660;2023-04-06T07:14:47;7.20;60.50
76470;DHT22;65305;52.870;13.660;2023-04-06T07:17:14;7.20;60.40
76470;DHT22;65305;52.870;13.660;2023-04-06T07:19:40;7.20;60.50
76470;DHT22;65305;52.870;13.660;2023-04-06T07:22:07;7.20;60.60
76470;DHT22;65305;52.870;13.660;2023-04-06T07:24:33;7.20;60.40
76470;DHT22;65305;52.870;13.660;2023-04-06T07:27:00;7.20;60.50
76470;DHT22;65305;52.870;13.660;2023-04-06T07:29:48;7.20;60.40
76470;DHT22;65305;52.870;13.660;2023-04-06T07:32:14;7.20;60.60
76470;DHT22;65305;52.870;13.660;2023-04-06T07:34:41;7.20;60.80
76470;DHT22;65305;52.870;13.660;2023-04-06T07:37:07;7.20;60.60
76470;DHT22;65305;52.870;13.660;2023-04-06T07:39:34;7.20;60.50
76470;DHT22;65305;52.870;13.660;2023-04-06T07:42:01;7.20;60.40
76470;DHT22;65305;52.870;13.660;2023-04-06T07:44:27;7.20;60.50
76470;DHT22;65305;52.870;13.660;2023-04-06T07:46:53;7.20;60.60
76470;DHT22;65305;52.870;13.660;2023-04-06T07:49:20;7.20;60.50
76470;DHT22;65305;52.870;13.660;2023-04-06T07:51:47;7.20;60.60
76470;DHT22;65305;52.870;13.660;2023-04-06T07:54:13;7.20;60.70
76470;DHT22;65305;52.870;13.660;2023-04-06T07:56:40;7.20;60.50
76470;DHT22;65305;52.870;13.660;2023-04-06T07:59:06;7.10;60.50
76470;DHT22;65305;52.870;13.660;2023-04-06T08:01:33;7.10;60.60
76470;DHT22;65305;52.870;13.660;2023-04-06T08:03:59;7.10;60.50
76470;DHT22;65305;52.870;13.660;2023-04-06T08:06:28;7.10;60.60
76470;DHT22;65305;52.870;13.660;2023-04-06T08:08:55;7.10;60.70
76470;DHT22;65305;52.870;13.660;2023-04-06T08:11:21;7.10;60.50
76470;DHT22;65305;52.870;13.660;2023-04-06T08:13:48;7.10;60.60
76470;DHT22;65305;52.870;13.660;2023-04-06T08:16:14;7.10;60.70
76470;DHT22;65305;52.870;13.660;2023-04-06T08:18:41;7.00;60.60
76470;DHT22;65305;52.870;13.660;2023-04-06T08:21:07;7.10;60.80
76470;DHT22;65305;52.870;13.660;2023-04-06T08:23:34;7.00;60.70
76470;DHT22;65305;52.870;13.660;2023-04-06T08:26:00;7.00;60.70
76470;DHT22;65305;52.870;13.660;2023-04-06T08:28:27;7.00;60.90
76470;DHT22;65305;52.870;13.660;2023-04-06T08:30:53;7.00;60.80
76470;DHT22;65305;52.870;13.660;2023-04-06T08:33:20;7.00;60.80
76470;DHT22;65305;52.870;13.660;2023-04-06T08:35:47;7.00;60.80
76470;DHT22;65305;52.870;13.660;2023-04-06T08:38:13;7.00;60.90
76470;DHT22;65305;52.870;13.660;2023-04-06T08:40:43;7.00;60.90
76470;DHT22;65305;52.870;13.660;2023-04-06T08:43:13;7.00;60.90
76470;DHT22;65305;52.870;13.660;2023-04-06T08:45:41;7.00;61.00
76470;DHT22;65305;52.870;13.660;2023-04-06T08:48:08;7.00;60.70
76470;DHT22;65305;52.870;13.660;2023-04-06T08:50:35;7.00;60.70
76470;DHT22;65305;52.870;13.660;2023-04-06T08:53:02;7.00;60.90
76470;DHT22;65305;52.870;13.660;2023-04-06T08:55:29;7.00;61.00
76470;DHT22;65305;52.870;13.660;2023-04-06T08:57:56;7.00;60.70
76470;DHT22;65305;52.870;13.660;2023-04-06T09:00:22;7.00;61.00
76470;DHT22;65305;52.870;13.660;2023-04-06T09:02:50;7.00;61.00
76470;DHT22;65305;52.870;13.660;2023-04-06T09:05:20;7.00;60.90
76470;DHT22;65305;52.870;13.660;2023-04-06T09:07:47;7.00;61.00
76470;DHT22;65305;52.870;13.660;2023-04-06T09:10:14;7.00;60.80
76470;DHT22;65305;52.870;13.660;2023-04-06T09:12:41;6.90;61.00
76470;DHT22;65305;52.870;13.660;2023-04-06T09:15:17;6.90;61.10
76470;DHT22;65305;52.870;13.660;2023-04-06T09:17:44;7.00;61.00
76470;DHT22;65305;52.870;13.660;2023-04-06T09:20:11;6.90;60.90
76470;DHT22;65305;52.870;13.660;2023-04-06T09:22:38;6.90;61.00
76470;DHT22;65305;52.870;13.660;2023-04-06T09:25:05;6.90;60.90
76470;DHT22;65305;52.870;13.660;2023-04-06T09:27:32;6.90;61.00
76470;DHT22;65305;52.870;13.660;2023-04-06T09:30:08;6.90;61.00
76470;DHT22;65305;52.870;13.660;2023-04-06T09:32:46;6.90;60.80
76470;DHT22;65305;52.870;13.660;2023-04-06T09:35:14;6.90;61.10
76470;DHT22;65305;52.870;13.660;2023-04-06T09:37:43;6.90;61.20
76470;DHT22;65305;52.870;13.660;2023-04-06T09:40:12;6.90;61.00
76470;DHT22;65305;52.870;13.660;2023-04-06T09:42:42;6.90;60.90
76470;DHT22;65305;52.870;13.660;2023-04-06T09:45:12;6.90;61.10
76470;DHT22;65305;52.870;13.660;2023-04-06T09:47:39;6.90;60.80
76470;DHT22;65305;52.870;13.660;2023-04-06T09:50:06;6.90;61.20
76470;DHT22;65305;52.870;13.660;2023-04-06T09:52:55;6.90;61.10
76470;DHT22;65305;52.870;13.660;2023-04-06T09:55:27;6.90;61.10
76470;DHT22;65305;52.870;13.660;2023-04-06T09:58:16;6.90;61.10
76470;DHT22;65305;52.870;13.660;2023-04-06T10:04:02;6.20;60.40
76470;DHT22;65305;52.870;13.660;2023-04-06T10:06:10;6.00;60.50
76470;DHT22;65305;52.870;13.660;2023-04-06T10:08:38;6.10;58.90
76470;DHT22;65305;52.870;13.660;2023-04-06T10:11:11;6.20;57.80
76470;DHT22;65305;52.870;13.660;2023-04-06T10:13:38;6.20;58.20
76470;DHT22;65305;52.870;13.660;2023-04-06T10:16:04;6.20;58.30
76470;DHT22;65305;52.870;13.660;2023-04-06T10:18:32;6.10;58.20
76470;DHT22;65305;52.870;13.660;2023-04-06T10:21:09;6.10;58.40
76470;DHT22;65305;52.870;13.660;2023-04-06T10:23:43;6.20;58.60
76470;DHT22;65305;52.870;13.660;2023-04-06T10:26:15;6.20;58.40
76470;DHT22;65305;52.870;13.660;2023-04-06T10:28:43;6.30;58.00
76470;DHT22;65305;52.870;13.660;2023-04-06T10:31:10;6.40;57.80
76470;DHT22;65305;52.870;13.660;2023-04-06T10:33:37;6.40;57.90
76470;DHT22;65305;52.870;13.660;2023-04-06T10:36:21;6.40;58.00
76470;DHT22;65305;52.870;13.660;2023-04-06T10:38:53;6.50;58.30
76470;DHT22;65305;52.870;13.660;2023-04-06T10:41:21;6.50;58.40
76470;DHT22;65305;52.870;13.660;2023-04-06T10:43:54;6.50;58.50
76470;DHT22;65305;52.870;13.660;2023-04-06T10:46:25;6.60;59.00
76470;DHT22;65305;52.870;13.660;2023-04-06T10:48:52;6.80;58.00
76470;DHT22;65305;52.870;13.660;2023-04-06T10:51:19;7.00;58.80
76470;DHT22;65305;52.870;13.660;2023-04-06T10:53:47;7.20;59.20
76470;DHT22;65305;52.870;13.660;2023-04-06T10:56:15;7.20;59.50
76470;DHT22;65305;52.870;13.660;2023-04-06T10:58:45;7.40;59.80
76470;DHT22;65305;52.870;13.660;2023-04-06T11:01:12;7.50;60.10
76470;DHT22;65305;52.870;13.660;2023-04-06T11:03:45;7.60;60.40
76470;DHT22;65305;52.870;13.660;2023-04-06T11:06:21;7.50;60.30
76470;DHT22;65305;52.870;13.660;2023-04-06T11:08:48;7.50;60.60
76470;DHT22;65305;52.870;13.660;2023-04-06T11:11:16;7.50;60.80
76470;DHT22;65305;52.870;13.660;2023-04-06T11:13:51;7.50;60.90
76470;DHT22;65305;52.870;13.660;2023-04-06T11:16:18;7.50;61.20
76470;DHT22;65305;52.870;13.660;2023-04-06T11:18:52;7.60;61.30
76470;DHT22;65305;52.870;13.660;2023-04-06T11:21:20;7.60;61.20
76470;DHT22;65305;52.870;13.660;2023-04-06T11:23:50;7.70;60.70
76470;DHT22;65305;52.870;13.660;2023-04-06T11:26:17;7.80;61.40
76470;DHT22;65305;52.870;13.660;2023-04-06T11:28:43;8.00;62.20
76470;DHT22;65305;52.870;13.660;2023-04-06T11:31:10;8.00;62.20
76470;DHT22;65305;52.870;13.660;2023-04-06T11:33:37;8.00;62.90
76470;DHT22;65305;52.870;13.660;2023-04-06T11:36:05;8.00;61.90
76470;DHT22;65305;52.870;13.660;2023-04-06T11:38:32;8.10;61.90
76470;DHT22;65305;52.870;13.660;2023-04-06T11:40:58;8.30;63.60
76470;DHT22;65305;52.870;13.660;2023-04-06T11:43:30;8.50;62.20
76470;DHT22;65305;52.870;13.660;2023-04-06T11:46:03;8.60;61.10
76470;DHT22;65305;52.870;13.660;2023-04-06T11:48:30;8.60;60.80
76470;DHT22;65305;52.870;13.660;2023-04-06T11:50:57;8.60;63.30
76470;DHT22;65305;52.870;13.660;2023-04-06T11:53:29;8.50;63.20
76470;DHT22;65305;52.870;13.660;2023-04-06T11:55:56;8.40;67.60
76470;DHT22;65305;52.870;13.660;2023-04-06T11:58:22;8.40;66.30
76470;DHT22;65305;52.870;13.660;2023-04-06T12:00:49;8.50;64.10
76470;DHT22;65305;52.870;13.660;2023-04-06T12:03:15;8.50;64.80
76470;DHT22;65305;52.870;13.660;2023-04-06T12:05:42;8.60;64.80
76470;DHT22;65305;52.870;13.660;2023-04-06T12:08:09;8.60;66.20
76470;DHT22;65305;52.870;13.660;2023-04-06T12:10:36;8.90;70.00
76470;DHT22;65305;52.870;13.660;2023-04-06T12:13:02;9.00;68.50
76470;DHT22;65305;52.870;13.660;2023-04-06T12:15:29;9.00;65.80
76470;DHT22;65305;52.870;13.660;2023-04-06T12:20:34;9.40;67.30
76470;DHT22;65305;52.870;13.660;2023-04-06T12:23:01;9.50;62.70
76470;DHT22;65305;52.870;13.660;2023-04-06T12:25:27;9.80;62.30
76470;DHT22;65305;52.870;13.660;2023-04-06T12:27:54;10.00;61.60
76470;DHT22;65305;52.870;13.660;2023-04-06T12:30:21;10.10;61.30
76470;DHT22;65305;52.870;13.660;2023-04-06T12:32:47;10.00;60.90
76470;DHT22;65305;52.870;13.660;2023-04-06T12:35:14;9.90;60.70
76470;DHT22;65305;52.870;13.660;2023-04-06T12:37:41;9.90;60.40
76470;DHT22;65305;52.870;13.660;2023-04-06T12:40:08;10.00;60.80
76470;DHT22;65305;52.870;13.660;2023-04-06T12:42:36;10.00;60.80
76470;DHT22;65305;52.870;13.660;2023-04-06T12:45:04;10.00;61.70
76470;DHT22;65305;52.870;13.660;2023-04-06T12:47:31;10.10;61.80
76470;DHT22;65305;52.870;13.660;2023-04-06T12:49:58;10.20;62.70
76470;DHT22;65305;52.870;13.660;2023-04-06T12:52:24;10.30;63.00
76470;DHT22;65305;52.870;13.660;2023-04-06T12:54:51;10.40;63.70
76470;DHT22;65305;52.870;13.660;2023-04-06T12:57:18;10.40;64.80
76470;DHT22;65305;52.870;13.660;2023-04-06T12:59:45;10.50;64.70
76470;DHT22;65305;52.870;13.660;2023-04-06T13:02:12;10.60;65.40
76470;DHT22;65305;52.870;13.660;2023-04-06T13:04:38;10.70;65.70
76470;DHT22;65305;52.870;13.660;2023-04-06T13:07:05;10.70;65.90
76470;DHT22;65305;52.870;13.660;2023-04-06T13:09:33;10.80;66.00
76470;DHT22;65305;52.870;13.660;2023-04-06T13:12:04;10.90;66.20
76470;DHT22;65305;52.870;13.660;2023-04-06T13:14:31;10.90;66.30
76470;DHT22;65305;52.870;13.660;2023-04-06T13:16:59;11.00;66.30
76470;DHT22;65305;52.870;13.660;2023-04-06T13:19:26;11.00;66.60
76470;DHT22;65305;52.870;13.660;2023-04-06T13:21:54;11.10;66.00
76470;DHT22;65305;52.870;13.660;2023-04-06T13:24:27;11.10;66.20
76470;DHT22;65305;52.870;13.660;2023-04-06T13:26:54;11.30;66.40
76470;DHT22;65305;52.870;13.660;2023-04-06T13:29:21;11.40;66.60
76470;DHT22;65305;52.870;13.660;2023-04-06T13:31:47;11.30;66.50
76470;DHT22;65305;52.870;13.660;2023-04-06T13:34:14;11.10;67.20
76470;DHT22;65305;52.870;13.660;2023-04-06T13:36:41;10.90;68.20
76470;DHT22;65305;52.870;13.660;2023-04-06T13:39:08;10.80;68.70
76470;DHT22;65305;52.870;13.660;2023-04-06T13:41:35;10.80;68.90
76470;DHT22;65305;52.870;13.660;2023-04-06T13:44:01;10.80;69.10
76470;DHT22;65305;52.870;13.660;2023-04-06T13:46:28;10.70;68.90
76470;DHT22;65305;52.870;13.660;2023-04-06T13:48:54;10.70;68.40
76470;DHT22;65305;52.870;13.660;2023-04-06T13:51:21;10.70;68.40
76470;DHT22;65305;52.870;13.660;2023-04-06T13:53:48;10.70;68.00
76470;DHT22;65305;52.870;13.660;2023-04-06T13:56:19;10.80;67.50
76470;DHT22;65305;52.870;13.660;2023-04-06T13:58:45;10.80;66.80
76470;DHT22;65305;52.870;13.660;2023-04-06T14:01:12;10.80;66.80
76470;DHT22;65305;52.870;13.660;2023-04-06T14:03:39;10.80;66.50
76470;DHT22;65305;52.870;13.660;2023-04-06T14:06:11;10.80;66.50
76470;DHT22;65305;52.870;13.660;2023-04-06T14:08:38;10.80;66.10
76470;DHT22;65305;52.870;13.660;2023-04-06T14:11:05;10.80;65.30
76470;DHT22;65305;52.870;13.660;2023-04-06T14:13:33;10.80;65.30
76470;DHT22;65305;52.870;13.660;2023-04-06T14:16:00;10.80;65.10
76470;DHT22;65305;52.870;13.660;2023-04-06T14:18:27;10.80;64.40
76470;DHT22;65305;52.870;13.660;2023-04-06T14:20:57;10.80;64.50
76470;DHT22;65305;52.870;13.660;2023-04-06T14:23:24;10.90;64.50
76470;DHT22;65305;52.870;13.660;2023-04-06T14:26:03;10.90;64.10
76470;DHT22;65305;52.870;13.660;2023-04-06T14:28:34;10.90;63.90
76470;DHT22;65305;52.870;13.660;2023-04-06T14:31:08;10.90;63.70
76470;DHT22;65305;52.870;13.660;2023-04-06T14:33:36;10.90;63.60
76470;DHT22;65305;52.870;13.660;2023-04-06T14:36:03;10.90;63.00
76470;DHT22;65305;52.870;13.660;2023-04-06T14:38:29;10.90;63.10
76470;DHT22;65305;52.870;13.660;2023-04-06T14:40:57;11.10;65.80
76470;DHT22;65305;52.870;13.660;2023-04-06T14:43:23;11.60;64.80
76470;DHT22;65305;52.870;13.660;2023-04-06T14:45:51;11.80;62.90
76470;DHT22;65305;52.870;13.660;2023-04-06T14:48:18;11.70;61.50
76470;DHT22;65305;52.870;13.660;2023-04-06T14:50:55;12.00;58.00
76470;DHT22;65305;52.870;13.660;2023-04-06T14:53:22;12.50;56.20
76470;DHT22;65305;52.870;13.660;2023-04-06T14:55:49;12.90;56.10
76470;DHT22;65305;52.870;13.660;2023-04-06T14:58:17;13.20;56.10
76470;DHT22;65305;52.870;13.660;2023-04-06T15:00:44;13.30;56.40
76470;DHT22;65305;52.870;13.660;2023-04-06T15:03:11;13.30;56.80
76470;DHT22;65305;52.870;13.660;2023-04-06T15:05:37;13.30;56.00
76470;DHT22;65305;52.870;13.660;2023-04-06T15:08:04;13.50;56.00
76470;DHT22;65305;52.870;13.660;2023-04-06T15:10:33;13.70;56.00
76470;DHT22;65305;52.870;13.660;2023-04-06T15:13:01;13.60;56.50
76470;DHT22;65305;52.870;13.660;2023-04-06T15:15:28;13.50;56.60
76470;DHT22;65305;52.870;13.660;2023-04-06T15:17:55;13.50;56.40
76470;DHT22;65305;52.870;13.660;2023-04-06T15:20:21;13.50;55.90
76470;DHT22;65305;52.870;13.660;2023-04-06T15:22:48;13.30;56.60
76470;DHT22;65305;52.870;13.660;2023-04-06T15:25:14;13.30;55.60
76470;DHT22;65305;52.870;13.660;2023-04-06T15:27:41;13.30;55.20
76470;DHT22;65305;52.870;13.660;2023-04-06T15:30:08;13.40;55.00
76470;DHT22;65305;52.870;13.660;2023-04-06T15:32:35;13.50;54.70
76470;DHT22;65305;52.870;13.660;2023-04-06T15:35:08;13.50;54.40